Charlevoix, Michigan
Current Conditions -  °F | °C
As of 3:14 AM on Tuesday 21 Oct 2014 (Local Time) from KCVX Reporting Station
Overcast Overcast  
Wind Chill: 42°   Ceiling: 2600
Heat Index: 47°   Visibility: 10mi
Dew Point: 41°   Wind: 9mph
Humidity: 81%   Direction: 50°NE
Pressure: 30.01"   Gusts: NA
Location:  45.32°N, 85.26°W
Report Text: KCVX 210714Z AUTO 05008KT 10SM OVC026 08/05 A3001 RMK AO2 T00820051
Loading
Personal Weather Stations






























Interactive Weather Map New forecast layout! Learn more

10-Day Weather Forecast

Advertisements
Track Severe Weather on mobile